Preston, United Kingdom
Current Conditions -  °F | °C
As of 4:20 PM on Thursday 23 Oct 2014 (Local Time) from EGNO Reporting Station
Broken Clouds Broken Clouds  
Wind Chill: 15°   Ceiling: 2000
Heat Index: 15°   Visibility: 6mi
Dew Point: 13°   Wind: 9mph
Humidity: 88%   Direction: 230°SW
Pressure: 29.85"   Gusts: NA
Location:  53.76°N, 2.71°W
Report Text: EGNO 231520Z 23008KT 200V260 9999 FEW014 BKN020 15/13 Q1011
Loading
Personal Weather Stations






























Interactive Weather Map
Tropical Storm Tracking
New forecast layout! Learn more

10-Day Weather Forecast

Advertisements
Track Severe Weather on mobile